Time;durP1;ratioP1;P1;durP2;ratioP2;P2;SDS_P1;SDS_P2;PMS_P1;PMS_P2;Temp;Humidity;BMP_temperature;BMP_pressure;BME280_temperature;BME280_humidity;BME280_pressure;Samples;Min_cycle;Max_cycle;Signal;HPM_P1;HPM_P2
2022/12/21 00:00:05;;;;;;;22.80;14.30;;;5.60;99.90;;;-141.84;76.43;18872.97;5051535;28;20304;-64
2022/12/21 00:02:34;;;;;;;21.60;14.57;;;5.50;99.90;;;-141.84;76.51;18885.16;5033260;28;20187;-64
2022/12/21 00:05:03;;;;;;;22.10;14.17;;;5.60;99.90;;;-141.84;76.84;18844.53;5031955;28;20299;-63
2022/12/21 00:07:31;;;;;;;20.87;14.47;;;5.50;99.90;;;-141.84;76.87;18881.09;5032156;28;20230;-63
2022/12/21 00:09:59;;;;;;;21.73;14.10;;;5.50;99.90;;;-141.84;76.40;18868.91;5032293;28;20230;-63
2022/12/21 00:12:28;;;;;;;20.03;13.53;;;5.60;99.90;;;-141.84;76.19;18895.31;5037168;28;20282;-63
2022/12/21 00:14:56;;;;;;;21.37;14.03;;;5.60;99.90;;;-141.84;76.40;18883.13;5052380;28;20205;-62
2022/12/21 00:17:25;;;;;;;22.40;14.90;;;5.50;99.90;;;-141.84;76.56;18846.56;5052987;28;20217;-63
2022/12/21 00:19:53;;;;;;;21.43;13.93;;;5.60;99.90;;;-141.84;76.90;18858.75;5052193;28;20570;-64
2022/12/21 00:22:21;;;;;;;22.77;14.73;;;5.50;99.90;;;-141.84;76.48;18885.16;5052557;28;20233;-62
2022/12/21 00:24:50;;;;;;;22.37;14.33;;;5.50;99.90;;;-141.84;76.62;18866.88;5052288;28;20259;-63
2022/12/21 00:27:18;;;;;;;21.67;14.60;;;5.40;99.90;;;-141.84;75.35;18868.91;5048517;28;20226;-63
2022/12/21 00:29:46;;;;;;;22.00;13.83;;;5.50;99.90;;;-141.84;76.57;18862.81;5032848;28;20300;-64
2022/12/21 00:32:14;;;;;;;21.60;14.13;;;5.40;99.90;;;-141.84;77.37;18854.69;5032547;28;20803;-62
2022/12/21 00:34:43;;;;;;;22.43;14.57;;;5.30;99.90;;;-141.84;77.64;18858.75;5032121;28;20240;-64
2022/12/21 00:37:12;;;;;;;21.57;14.53;;;5.30;99.90;;;-141.84;77.09;18856.72;5041999;28;20225;-63
2022/12/21 00:39:41;;;;;;;21.97;14.33;;;5.30;99.90;;;-141.84;76.19;18858.75;5052054;28;20224;-62
2022/12/21 00:42:09;;;;;;;22.53;14.87;;;5.40;99.90;;;-141.84;74.98;18870.94;5049639;28;20304;-63
2022/12/21 00:44:37;;;;;;;17.80;13.43;;;5.40;99.90;;;-141.84;75.74;18879.06;5032569;28;20213;-63
2022/12/21 00:47:05;;;;;;;22.20;13.87;;;5.40;99.90;;;-141.84;74.97;18862.81;5031903;28;20226;-63
2022/12/21 00:49:33;;;;;;;21.10;13.93;;;5.50;99.90;;;-141.84;75.50;18866.88;5032012;28;20237;-63
2022/12/21 00:52:03;;;;;;;20.00;13.43;;;5.50;99.90;;;-141.84;74.67;18868.91;5031581;28;20238;-63
2022/12/21 00:54:31;;;;;;;21.23;14.00;;;5.50;99.90;;;-141.84;74.17;18897.34;5031666;28;20237;-63
2022/12/21 00:56:59;;;;;;;20.40;13.73;;;5.60;99.90;;;-141.84;74.57;18885.16;5032306;28;20225;-63
2022/12/21 00:59:27;;;;;;;20.00;13.40;;;5.50;99.90;;;-141.84;74.32;18885.16;5052285;28;20276;-64
2022/12/21 01:01:55;;;;;;;19.93;14.37;;;5.50;99.90;;;-141.84;73.90;18913.59;5034405;28;20222;-63
2022/12/21 01:04:24;;;;;;;18.67;12.87;;;5.60;99.90;;;-141.84;74.59;18899.38;5031740;28;20236;-63
2022/12/21 01:06:52;;;;;;;19.83;13.87;;;5.60;99.90;;;-141.84;74.82;18862.81;5031615;28;20698;-63
2022/12/21 01:09:21;;;;;;;20.17;12.87;;;5.50;99.90;;;-141.84;74.32;18879.06;5035498;28;20221;-62
2022/12/21 01:11:49;;;;;;;22.70;13.80;;;5.60;99.90;;;-141.84;74.06;18903.44;5051827;28;20204;-63
2022/12/21 01:14:18;;;;;;;21.43;13.30;;;5.60;99.90;;;-141.84;73.60;18917.66;5051699;28;20225;-63
2022/12/21 01:16:46;;;;;;;21.47;13.67;;;5.60;99.90;;;-141.84;73.70;18905.47;5035386;28;20260;-63
2022/12/21 01:19:14;;;;;;;20.73;13.57;;;5.70;99.90;;;-141.84;72.83;18895.31;5031388;28;20222;-63
2022/12/21 01:21:43;;;;;;;22.30;13.60;;;5.80;99.90;;;-141.84;72.50;18956.28;5038024;28;20217;-62
2022/12/21 01:24:13;;;;;;;19.57;13.60;;;5.80;99.90;;;-141.84;73.52;18897.34;5051080;28;20212;-62
2022/12/21 01:26:43;;;;;;;19.77;12.97;;;5.80;99.90;;;-141.84;73.56;18940.03;5051587;28;20220;-63
2022/12/21 01:29:15;;;;;;;20.60;12.87;;;5.90;99.90;;;-141.84;74.29;18901.41;5031968;28;20773;-64
2022/12/21 01:31:43;;;;;;;22.03;13.60;;;5.80;99.90;;;-141.84;74.21;18879.06;5031162;28;20240;-62
2022/12/21 01:34:11;;;;;;;19.13;13.67;;;5.80;99.90;;;-141.84;74.74;18919.69;5031138;28;20225;-63
2022/12/21 01:36:40;;;;;;;21.00;13.83;;;5.70;99.90;;;-141.84;74.94;18915.63;5036941;28;20236;-62
2022/12/21 01:39:08;;;;;;;21.20;13.63;;;5.80;99.90;;;-141.84;76.06;18854.69;5050818;28;20225;-64
2022/12/21 01:41:36;;;;;;;20.57;13.47;;;5.70;99.90;;;-141.84;76.37;18887.19;5050794;28;20736;-63
2022/12/21 01:44:59;;;;;;;20.03;13.20;;;5.60;99.90;;;-141.84;77.18;18850.63;5032613;28;20264;-61
2022/12/21 01:47:37;;;;;;;21.40;13.83;;;5.60;99.90;;;-141.84;77.12;18893.28;5028660;28;20226;-63
2022/12/21 01:50:33;;;;;;;19.30;14.10;;;5.60;99.90;;;-141.84;77.09;18852.66;5030920;28;20774;-64
2022/12/21 01:53:07;;;;;;;20.90;13.27;;;5.60;99.90;;;-141.84;78.11;18862.81;5030846;28;20602;-62
2022/12/21 01:55:37;;;;;;;19.30;13.67;;;5.60;99.90;;;-141.84;77.17;18834.38;5030726;28;20225;-64
2022/12/21 01:58:08;;;;;;;21.87;13.83;;;5.60;99.90;;;-141.84;77.52;18830.31;5030479;28;20280;-64
2022/12/21 02:00:40;;;;;;;19.87;13.93;;;5.60;99.90;;;-141.84;78.24;18846.56;5031075;28;20217;-64
2022/12/21 02:03:17;;;;;;;19.80;13.43;;;5.60;99.90;;;-141.84;78.64;18872.97;5030943;28;20194;-63
2022/12/21 02:05:52;;;;;;;20.67;13.53;;;5.60;99.90;;;-141.84;78.92;18822.19;5031425;28;20194;-64
2022/12/21 02:08:21;;;;;;;20.77;13.80;;;5.60;99.90;;;-141.84;79.72;18834.38;5031088;28;20666;-65
2022/12/21 02:10:51;;;;;;;19.73;14.17;;;5.60;99.90;;;-141.84;80.71;18842.50;5030695;28;20236;-65
2022/12/21 02:13:19;;;;;;;21.60;13.90;;;5.50;99.90;;;-141.84;80.47;18818.09;5042284;28;20236;-64
2022/12/21 02:16:14;;;;;;;20.50;13.87;;;5.50;99.90;;;-141.84;81.05;18803.88;5050784;28;20232;-63
2022/12/21 02:19:16;;;;;;;21.10;14.80;;;5.50;99.90;;;-141.84;81.57;18824.22;5050859;28;20225;-64
2022/12/21 02:21:51;;;;;;;19.60;13.10;;;5.50;99.90;;;-141.84;81.96;18818.09;5050493;28;20221;-64
2022/12/21 02:25:05;;;;;;;23.07;14.83;;;5.40;99.90;;;-141.84;82.20;18828.28;5050531;28;20225;-63
2022/12/21 02:28:17;;;;;;;22.87;13.97;;;5.50;99.90;;;-141.84;82.46;18805.91;5041715;28;20230;-64
2022/12/21 02:31:04;;;;;;;20.03;13.53;;;5.50;99.90;;;-141.84;83.10;18777.47;5020287;28;20229;-62
2022/12/21 02:33:56;;;;;;;23.30;14.50;;;5.50;99.90;;;-141.84;83.81;18765.28;5030374;28;20226;-63
2022/12/21 02:36:39;;;;;;;22.10;13.90;;;5.40;99.90;;;-141.84;84.27;18767.31;5030477;28;20230;-62
2022/12/21 02:39:22;;;;;;;21.53;14.40;;;5.40;99.90;;;-141.84;84.60;18783.56;5030155;28;20210;-63
2022/12/21 02:42:02;;;;;;;22.17;14.13;;;5.50;99.90;;;-141.84;84.33;18771.38;5030093;28;20199;-63
2022/12/21 02:44:47;;;;;;;21.90;14.70;;;5.50;99.90;;;-141.84;84.91;18751.06;5030905;28;20202;-63
2022/12/21 02:47:25;;;;;;;20.87;14.30;;;5.50;99.90;;;-141.84;84.76;18775.44;5049907;28;20221;-62
2022/12/21 02:50:02;;;;;;;23.53;14.73;;;5.50;99.90;;;-141.84;85.42;18757.16;5050456;28;20221;-63
2022/12/21 02:52:40;;;;;;;22.13;14.40;;;5.60;99.90;;;-141.84;85.69;18761.22;5050041;28;20287;-63
2022/12/21 02:55:12;;;;;;;24.00;15.47;;;5.60;99.90;;;-141.84;86.14;18716.53;5050027;28;20225;-64
2022/12/21 02:57:43;;;;;;;26.50;15.13;;;5.60;99.90;;;-141.84;86.53;18704.31;5049621;28;20783;-63
2022/12/21 03:00:17;;;;;;;21.50;14.70;;;5.60;99.90;;;-141.84;86.99;18722.63;5052805;28;20645;-66
2022/12/21 03:06:25;;;;;;;22.13;14.40;;;5.60;99.90;;;-141.84;85.60;18775.44;5053944;28;20228;-63
2022/12/21 03:09:13;;;;;;;22.27;15.03;;;5.70;99.90;;;-141.84;86.35;18712.47;5053773;28;20186;-62
2022/12/21 03:11:56;;;;;;;23.27;14.17;;;5.60;99.90;;;-141.84;86.48;18716.53;5054193;28;20228;-63
2022/12/21 03:14:43;;;;;;;21.07;14.57;;;5.70;99.90;;;-141.84;86.80;18744.97;5054016;28;20209;-64
2022/12/21 03:17:24;;;;;;;24.13;14.90;;;5.60;99.90;;;-141.84;86.99;18718.56;5053306;28;20234;-62
2022/12/21 03:20:04;;;;;;;24.17;15.37;;;5.60;99.90;;;-141.84;87.26;18714.50;5053222;28;20233;-64
2022/12/21 03:22:40;;;;;;;23.77;15.00;;;5.60;99.90;;;-141.84;87.45;18720.59;5052814;28;20233;-64
2022/12/21 03:25:15;;;;;;;23.67;14.23;;;5.60;99.90;;;-141.84;87.50;18673.84;5053087;28;20712;-63
2022/12/21 03:27:49;;;;;;;22.10;14.87;;;5.60;99.90;;;-141.84;87.78;18710.44;5052672;28;20782;-63
2022/12/21 03:30:21;;;;;;;21.33;14.20;;;5.60;99.90;;;-141.84;88.06;18684.00;5053434;28;20670;-56
2022/12/21 03:32:58;;;;;;;21.83;15.10;;;5.60;99.90;;;-141.84;88.10;18712.47;5053832;28;20186;-57
2022/12/21 03:35:37;;;;;;;26.47;15.93;;;5.60;99.90;;;-141.84;88.01;18708.41;5053371;28;20205;-57
2022/12/21 03:38:13;;;;;;;23.67;15.20;;;5.60;99.90;;;-141.84;88.40;18694.16;5053032;28;20236;-58
2022/12/21 03:40:47;;;;;;;23.30;15.97;;;5.60;99.90;;;-141.84;88.43;18708.41;5052998;28;20221;-57
2022/12/21 03:43:24;;;;;;;24.97;15.43;;;5.60;99.90;;;-141.84;88.29;18686.03;5052950;28;20229;-56
2022/12/21 03:46:00;;;;;;;24.37;15.83;;;5.70;99.90;;;-141.84;88.56;18718.56;5053234;28;20228;-58
2022/12/21 03:48:36;;;;;;;25.73;15.77;;;5.60;99.90;;;-141.84;89.18;18671.81;5052916;28;20223;-58
2022/12/21 03:51:15;;;;;;;22.43;16.17;;;5.70;99.90;;;-141.84;89.04;18714.50;5052514;28;20244;-59
2022/12/21 03:53:53;;;;;;;24.03;14.80;;;5.70;99.90;;;-141.84;88.41;18722.63;5053247;28;20643;-56
2022/12/21 03:56:30;;;;;;;21.70;15.20;;;5.70;99.90;;;-141.84;88.41;18675.88;5052873;28;20229;-59
2022/12/21 03:59:01;;;;;;;24.07;15.70;;;5.70;99.90;;;-141.84;88.98;18665.72;5052669;28;20232;-54
2022/12/21 04:01:43;;;;;;;23.40;14.90;;;5.70;99.90;;;-141.84;89.69;18675.88;5052836;28;20221;-55
2022/12/21 04:04:23;;;;;;;24.63;16.10;;;5.70;99.90;;;-141.84;89.55;18673.84;5052708;28;20735;-56
2022/12/21 04:06:57;;;;;;;23.97;16.40;;;5.70;99.90;;;-141.84;89.38;18702.28;5052787;28;20228;-58
2022/12/21 04:09:25;;;;;;;25.27;15.57;;;5.80;99.90;;;-141.84;89.32;18649.47;5052795;28;20224;-58
2022/12/21 04:14:43;;;;;;;25.47;15.10;;;5.70;99.90;;;-141.84;90.07;18671.81;5053249;28;20190;-55
2022/12/21 04:17:11;;;;;;;24.87;16.77;;;5.70;99.90;;;-141.84;89.33;18661.66;5052432;28;20232;-57
2022/12/21 04:28:08;;;;;;;24.07;16.23;;;5.80;99.90;;;-141.84;88.95;18708.41;5052226;28;20232;-54
2022/12/21 04:30:57;;;;;;;25.20;16.30;;;5.80;99.90;;;-141.84;89.02;18675.88;5052497;28;20628;-56
2022/12/21 04:33:28;;;;;;;22.93;15.27;;;5.90;99.90;;;-141.84;89.22;18667.75;5052052;28;20221;-55
2022/12/21 04:38:45;;;;;;;23.23;15.50;;;5.90;99.90;;;-141.84;89.67;18655.56;5052243;28;20189;-57
2022/12/21 04:41:14;;;;;;;27.77;17.17;;;5.90;99.90;;;-141.84;89.85;18686.03;5051861;28;20253;-52
2022/12/21 04:43:43;;;;;;;23.17;16.67;;;5.90;99.90;;;-141.84;90.23;18659.63;5051589;28;20651;-55
2022/12/21 04:46:14;;;;;;;23.63;15.57;;;5.90;99.90;;;-141.84;90.17;18673.84;5051728;28;20233;-56
2022/12/21 04:48:44;;;;;;;21.20;14.27;;;5.90;99.90;;;-141.84;90.63;18659.63;5051636;28;20771;-56
2022/12/21 04:51:15;;;;;;;21.60;15.43;;;5.90;99.90;;;-141.84;90.73;18690.09;5051848;28;20246;-58
2022/12/21 04:53:44;;;;;;;23.37;14.80;;;5.90;99.90;;;-141.84;90.99;18677.91;5052364;28;20190;-57
2022/12/21 04:56:13;;;;;;;23.57;16.00;;;6.00;99.90;;;-141.84;90.55;18665.72;5051427;28;20232;-56
2022/12/21 04:58:44;;;;;;;24.70;16.40;;;6.00;99.90;;;-141.84;90.46;18684.00;5051239;28;20229;-59
2022/12/21 05:01:14;;;;;;;22.40;15.07;;;6.00;99.90;;;-141.84;89.67;18655.56;5051810;28;20287;-57
2022/12/21 05:03:43;;;;;;;25.83;16.00;;;6.10;99.90;;;-141.84;89.98;18686.03;5051825;28;20225;-56
2022/12/21 05:06:14;;;;;;;22.33;15.20;;;6.10;99.90;;;-141.84;90.16;18686.03;5051755;28;20275;-57
2022/12/21 05:08:44;;;;;;;23.13;15.70;;;6.20;99.90;;;-141.84;89.84;18675.88;5052234;28;20190;-59
2022/12/21 05:11:15;;;;;;;20.93;14.83;;;6.10;99.90;;;-141.84;90.06;18673.84;5051192;28;20232;-58
2022/12/21 05:13:44;;;;;;;24.57;16.03;;;6.10;99.90;;;-141.84;90.54;18655.56;5051275;28;20229;-58
2022/12/21 05:16:15;;;;;;;26.73;16.73;;;6.20;99.90;;;-141.84;91.02;18649.47;5051145;28;20221;-56
2022/12/21 05:18:44;;;;;;;22.03;15.40;;;6.10;99.90;;;-141.84;91.46;18663.69;5051575;28;20232;-58
2022/12/21 05:21:12;;;;;;;23.67;17.57;;;6.10;99.90;;;-141.84;90.92;18643.38;5050885;28;20205;-60
2022/12/21 05:23:40;;;;;;;23.17;15.13;;;6.20;99.90;;;-141.84;90.43;18679.94;5051531;28;20206;-56
2022/12/21 05:26:11;;;;;;;22.53;16.33;;;6.20;99.90;;;-141.84;90.29;18675.88;5050952;28;20236;-57
2022/12/21 05:28:43;;;;;;;23.80;16.10;;;6.30;99.90;;;-141.84;90.26;18651.50;5050971;28;20278;-55
2022/12/21 05:31:13;;;;;;;21.43;15.53;;;6.30;99.90;;;-141.84;89.92;18694.16;5051249;28;20236;-58
2022/12/21 05:33:41;;;;;;;24.00;15.20;;;6.30;99.90;;;-141.84;90.02;18675.88;5051230;28;20308;-59
2022/12/21 05:36:12;;;;;;;24.57;15.87;;;6.40;99.90;;;-141.84;89.64;18702.28;5050941;28;20280;-58
2022/12/21 05:38:41;;;;;;;20.13;14.83;;;6.40;99.90;;;-141.84;89.32;18736.84;5051804;28;20193;-56
2022/12/21 05:41:11;;;;;;;20.20;15.10;;;6.40;99.90;;;-141.84;89.66;18704.31;5050772;28;20229;-56
2022/12/21 05:43:40;;;;;;;20.60;15.00;;;6.40;99.90;;;-141.84;89.95;18657.59;5050681;28;20231;-57
2022/12/21 05:46:11;;;;;;;25.00;15.73;;;6.40;99.90;;;-141.84;90.02;18684.00;5050957;28;20228;-58
2022/12/21 05:48:39;;;;;;;22.63;16.07;;;6.50;99.90;;;-141.84;89.96;18679.94;5051224;28;20228;-58
2022/12/21 05:51:09;;;;;;;19.13;14.33;;;6.50;99.90;;;-141.84;89.60;18681.97;5050848;28;20233;-57
2022/12/21 05:53:41;;;;;;;25.43;14.90;;;6.50;99.90;;;-141.84;89.82;18673.84;5051586;28;20197;-61
2022/12/21 05:56:12;;;;;;;23.50;15.33;;;6.50;99.90;;;-141.84;89.99;18702.28;5050501;28;20244;-54
2022/12/21 05:58:41;;;;;;;20.83;14.83;;;6.50;99.90;;;-141.84;89.88;18681.97;5050799;28;20271;-58
2022/12/21 06:01:11;;;;;;;23.07;14.63;;;6.50;99.90;;;-141.84;89.76;18669.78;5050561;28;20233;-58
2022/12/21 06:03:40;;;;;;;21.57;14.53;;;6.60;99.90;;;-141.84;89.82;18720.59;5050704;28;20236;-57
2022/12/21 06:06:12;;;;;;;20.20;14.73;;;6.60;99.90;;;-141.84;89.90;18681.97;5050899;28;20216;-56
2022/12/21 06:08:40;;;;;;;19.33;14.70;;;6.60;99.90;;;-141.84;89.91;18712.47;5051523;28;20189;-56
2022/12/21 06:11:13;;;;;;;26.27;14.53;;;6.60;99.90;;;-141.84;90.50;18688.06;5050557;28;20225;-57
2022/12/21 06:13:41;;;;;;;18.83;14.27;;;6.60;99.90;;;-141.84;91.01;18667.75;5050478;28;20229;-58
2022/12/21 06:16:13;;;;;;;21.17;15.07;;;6.60;99.90;;;-141.84;91.55;18690.09;5050360;28;20236;-57
2022/12/21 06:18:42;;;;;;;20.27;14.50;;;6.60;99.90;;;-141.84;91.70;18623.06;5050635;28;20229;-56
2022/12/21 06:21:12;;;;;;;21.07;14.77;;;6.50;99.90;;;-141.84;91.91;18606.81;5050633;28;20217;-57
2022/12/21 06:23:41;;;;;;;21.33;14.53;;;6.50;99.90;;;-141.84;92.15;18614.94;5051195;28;20197;-56
2022/12/21 06:26:15;;;;;;;21.43;15.63;;;6.50;99.90;;;-141.84;92.37;18639.31;5049990;28;20743;-54
2022/12/21 06:28:48;;;;;;;22.13;14.97;;;6.50;99.90;;;-141.84;92.41;18647.44;5050022;28;20407;-56
2022/12/21 06:31:18;;;;;;;20.27;14.37;;;6.50;99.90;;;-141.84;92.49;18651.50;5050273;28;20286;-58
2022/12/21 06:33:47;;;;;;;20.93;14.90;;;6.60;99.90;;;-141.84;92.53;18645.41;5051025;28;20248;-58
2022/12/21 06:36:15;;;;;;;17.73;13.97;;;6.60;99.90;;;-141.84;92.57;18635.25;5054336;28;20221;-56
2022/12/21 06:38:44;;;;;;;18.20;13.80;;;6.60;99.90;;;-141.84;92.71;18606.81;5054769;28;20407;-58
2022/12/21 06:41:16;;;;;;;19.50;14.37;;;6.50;99.90;;;-141.84;93.28;18641.34;5053789;28;20251;-58
2022/12/21 06:43:45;;;;;;;19.10;14.53;;;6.50;99.90;;;-141.84;93.37;18647.44;5054213;28;20325;-55
2022/12/21 06:46:16;;;;;;;20.20;14.30;;;6.50;99.90;;;-141.84;93.47;18645.41;5054090;28;20233;-58
2022/12/21 06:48:45;;;;;;;18.73;14.07;;;6.60;99.90;;;-141.84;93.81;18619.00;5054210;28;20217;-58
2022/12/21 06:51:17;;;;;;;20.20;15.37;;;6.50;99.90;;;-141.84;93.76;18619.00;5053854;28;20252;-56
2022/12/21 06:53:47;;;;;;;20.07;14.47;;;6.60;99.90;;;-141.84;93.65;18619.00;5054926;28;20188;-58
2022/12/21 06:56:20;;;;;;;20.40;13.73;;;6.50;99.90;;;-141.84;93.65;18625.09;5053640;28;20229;-56
2022/12/21 06:58:52;;;;;;;21.30;14.17;;;6.50;99.90;;;-141.84;93.74;18629.16;5053811;28;20683;-58
2022/12/21 07:01:22;;;;;;;21.00;14.60;;;6.60;99.90;;;-141.84;93.79;18598.69;5053527;28;20582;-55
2022/12/21 07:03:52;;;;;;;17.87;13.77;;;6.50;99.90;;;-141.84;94.09;18602.75;5053857;28;20229;-57
2022/12/21 07:06:23;;;;;;;22.60;15.73;;;6.50;99.90;;;-141.84;93.97;18645.41;5053520;28;20292;-57
2022/12/21 07:08:52;;;;;;;21.40;15.83;;;6.40;99.90;;;-141.84;94.14;18610.88;5054406;28;20197;-58
2022/12/21 07:11:25;;;;;;;17.33;13.47;;;6.50;99.90;;;-141.84;94.38;18590.56;5053890;28;20213;-58
2022/12/21 07:13:54;;;;;;;21.83;15.87;;;6.50;99.90;;;-141.84;94.32;18610.88;5053530;28;20228;-59
2022/12/21 07:16:23;;;;;;;20.97;16.23;;;6.50;99.90;;;-141.84;94.29;18614.94;5053269;28;20244;-58
2022/12/21 07:18:53;;;;;;;22.87;16.07;;;6.50;99.90;;;-141.84;94.02;18619.00;5053636;28;20233;-56
2022/12/21 07:21:22;;;;;;;20.07;15.20;;;6.50;99.90;;;-141.84;94.17;18608.84;5053430;28;20259;-56
2022/12/21 07:23:50;;;;;;;21.23;15.00;;;6.50;99.90;;;-141.84;94.29;18608.84;5053834;28;20198;-56
2022/12/21 07:26:25;;;;;;;19.27;14.17;;;6.50;99.90;;;-141.84;93.86;18614.94;5053106;28;20240;-58
2022/12/21 07:28:56;;;;;;;20.13;14.13;;;6.50;99.90;;;-141.84;93.45;18600.72;5053448;28;20224;-58
2022/12/21 07:31:27;;;;;;;20.97;15.23;;;6.50;99.90;;;-141.84;93.27;18594.63;5053193;28;20228;-59
2022/12/21 07:33:56;;;;;;;19.23;14.60;;;6.60;99.90;;;-141.84;92.69;18606.81;5053379;28;20232;-56
2022/12/21 07:36:24;;;;;;;21.00;15.57;;;6.60;99.90;;;-141.84;92.11;18625.09;5052509;28;20225;-57
2022/12/21 07:38:53;;;;;;;20.07;14.40;;;6.70;99.90;;;-141.84;91.91;18631.19;5053852;28;20201;-58
2022/12/21 07:41:23;;;;;;;28.97;20.97;;;6.70;99.90;;;-141.84;92.31;18610.88;5053324;28;20243;-55
2022/12/21 07:43:52;;;;;;;27.93;19.77;;;6.70;99.90;;;-141.84;92.54;18610.88;5052988;28;20225;-58
2022/12/21 07:46:20;;;;;;;20.63;14.83;;;6.70;99.90;;;-141.84;92.49;18629.16;5052750;28;20308;-58
2022/12/21 07:48:49;;;;;;;17.70;13.47;;;6.70;99.90;;;-141.84;92.36;18641.34;5052781;28;20237;-57
2022/12/21 07:51:17;;;;;;;15.53;12.03;;;6.80;99.90;;;-141.84;92.07;18643.38;5052883;28;20221;-57
2022/12/21 07:53:45;;;;;;;16.23;12.93;;;6.70;99.90;;;-141.84;92.23;18629.16;5052402;28;20209;-57
2022/12/21 07:56:17;;;;;;;16.00;12.33;;;6.70;99.90;;;-141.84;91.61;18645.41;5052161;28;20579;-57
2022/12/21 07:58:47;;;;;;;17.67;13.73;;;6.80;99.90;;;-141.84;91.35;18629.16;5052450;28;20666;-57
2022/12/21 08:01:17;;;;;;;18.13;13.33;;;6.80;99.90;;;-141.84;91.72;18629.16;5052438;28;20229;-59
2022/12/21 08:03:47;;;;;;;16.30;12.40;;;6.80;99.90;;;-141.84;92.15;18623.06;5052549;28;20268;-58
2022/12/21 08:06:17;;;;;;;17.23;12.20;;;6.80;99.90;;;-141.84;92.40;18631.19;5052567;28;20225;-58
2022/12/21 08:08:45;;;;;;;15.03;12.40;;;6.80;99.90;;;-141.84;92.56;18594.63;5052766;28;20209;-58
2022/12/21 08:11:16;;;;;;;13.97;11.47;;;6.80;99.90;;;-141.84;92.49;18623.06;5052299;28;20225;-56
2022/12/21 08:13:47;;;;;;;15.00;11.57;;;6.80;99.90;;;-141.84;92.43;18616.97;5052443;28;20236;-59
2022/12/21 08:16:18;;;;;;;14.97;11.53;;;6.90;99.90;;;-141.84;92.22;18612.91;5052461;28;20256;-58
2022/12/21 08:18:47;;;;;;;15.67;10.93;;;6.90;99.90;;;-141.84;92.17;18651.50;5052235;28;20290;-58
2022/12/21 08:21:16;;;;;;;16.93;11.70;;;6.90;99.90;;;-141.84;92.13;18651.50;5052414;28;20229;-57
2022/12/21 08:23:44;;;;;;;17.40;12.10;;;6.90;99.90;;;-141.84;91.98;18631.19;5052763;28;20197;-58
2022/12/21 08:26:14;;;;;;;13.67;10.73;;;6.90;99.90;;;-141.84;91.52;18665.72;5051324;28;20709;-56
2022/12/21 08:28:43;;;;;;;16.07;10.80;;;7.00;99.90;;;-141.84;91.08;18665.72;5051719;28;20232;-57
2022/12/21 08:31:15;;;;;;;15.20;11.27;;;7.10;99.90;;;-141.84;90.05;18675.88;5051922;28;20260;-55
2022/12/21 08:33:45;;;;;;;14.03;10.30;;;7.10;99.90;;;-141.84;90.05;18637.28;5051959;28;20229;-56
2022/12/21 08:36:16;;;;;;;12.00;9.10;;;7.10;99.90;;;-141.84;90.49;18649.47;5051913;28;20233;-58
2022/12/21 08:38:45;;;;;;;12.50;9.43;;;7.10;99.90;;;-141.84;90.64;18653.53;5052222;28;20219;-57
2022/12/21 08:41:33;;;;;;;12.40;10.10;;;7.20;99.90;;;-141.84;91.12;18651.50;5051526;28;20261;-58
2022/12/21 08:44:02;;;;;;;13.83;10.43;;;7.20;99.90;;;-141.84;90.93;18667.75;5051678;28;20255;-57
2022/12/21 08:46:32;;;;;;;12.27;10.50;;;7.20;99.90;;;-141.84;90.58;18649.47;5051764;28;20817;-58
2022/12/21 08:49:01;;;;;;;12.87;9.97;;;7.20;99.90;;;-141.84;90.60;18647.44;5051625;28;20256;-58
2022/12/21 08:51:29;;;;;;;11.27;8.63;;;7.20;99.90;;;-141.84;89.77;18667.75;5051690;28;20229;-58
2022/12/21 08:53:57;;;;;;;11.07;9.20;;;7.20;99.90;;;-141.84;88.81;18686.03;5051472;28;20201;-59
2022/12/21 08:56:25;;;;;;;10.17;8.50;;;7.30;99.90;;;-141.84;88.54;18684.00;5051090;28;20595;-58
2022/12/21 08:58:54;;;;;;;10.70;7.87;;;7.30;99.90;;;-141.84;86.91;18692.13;5051407;28;20233;-58
2022/12/21 09:01:23;;;;;;;12.33;8.77;;;7.40;99.90;;;-141.84;86.87;18702.28;5051422;28;20233;-54
2022/12/21 09:03:53;;;;;;;8.80;7.90;;;7.50;99.90;;;-141.84;85.72;18761.22;5051372;28;20233;-57
2022/12/21 09:06:21;;;;;;;10.00;7.30;;;7.60;99.90;;;-141.84;83.88;18773.41;5051498;28;20225;-58
2022/12/21 09:08:50;;;;;;;9.83;7.60;;;7.70;99.90;;;-141.84;84.70;18759.19;5051937;28;20553;-56
2022/12/21 09:11:22;;;;;;;7.30;6.60;;;7.80;99.90;;;-141.84;85.07;18753.09;5051488;28;20217;-59
2022/12/21 09:13:58;;;;;;;8.77;7.00;;;7.80;99.90;;;-141.84;85.34;18749.03;5051291;28;20609;-57
2022/12/21 09:16:27;;;;;;;7.90;6.80;;;8.00;99.90;;;-141.84;84.95;18749.03;5051347;28;20225;-58
2022/12/21 09:18:57;;;;;;;7.80;6.90;;;7.90;99.90;;;-141.84;85.26;18730.75;5051242;28;20626;-58
2022/12/21 09:21:25;;;;;;;9.10;6.60;;;8.00;99.90;;;-141.84;85.71;18757.16;5051368;28;20277;-57
2022/12/21 09:23:53;;;;;;;7.37;6.57;;;8.10;99.90;;;-141.84;83.01;18779.50;5051015;28;20206;-59
2022/12/21 09:26:22;;;;;;;8.50;5.93;;;;;;;-141.84;82.06;18818.09;5051148;28;20731;-60
2022/12/21 09:28:50;;;;;;;6.30;5.70;;;8.20;99.90;;;-141.84;82.42;18781.53;5050682;28;20247;-57
2022/12/21 09:31:20;;;;;;;8.27;6.00;;;;;;;-141.84;82.94;18789.66;5051261;28;20229;-57
2022/12/21 09:33:58;;;;;;;6.93;6.23;;;;;;;-141.84;82.30;18809.97;5050808;28;20287;-58
2022/12/21 09:36:27;;;;;;;7.23;6.43;;;8.30;99.90;;;-141.84;82.42;18844.53;5051100;28;20221;-59
2022/12/21 09:38:59;;;;;;;7.77;6.00;;;;;;;-141.84;82.36;18789.66;5050978;28;20676;-57
2022/12/21 09:41:54;;;;;;;7.13;6.40;;;;;;;-141.84;82.64;18805.91;5051214;28;20657;-59
2022/12/21 09:44:48;;;;;;;7.17;6.00;;;;;;;-141.84;82.59;18812.00;5051109;28;20620;-58
2022/12/21 09:47:26;;;;;;;7.20;6.37;;;;;;;-141.84;81.60;18846.56;5050793;28;20229;-57
2022/12/21 09:50:02;;;;;;;9.20;7.03;;;;;;;-141.84;81.01;18846.56;5050667;28;20730;-57
2022/12/21 09:52:37;;;;;;;6.83;5.80;;;;;;;-141.84;81.07;18834.38;5050594;28;20229;-58
2022/12/21 09:55:14;;;;;;;7.40;6.13;;;;;;;-141.84;81.05;18836.41;5050703;28;20239;-57
2022/12/21 09:57:44;;;;;;;6.73;5.73;;;;;;;-141.84;81.27;18848.59;5050748;28;20224;-55
2022/12/21 10:00:18;;;;;;;7.03;5.70;;;;;;;-141.84;79.80;18862.81;5050575;28;20629;-58
2022/12/21 10:03:22;;;;;;;7.17;5.80;;;;;;;-141.84;79.49;18887.19;5051097;28;20209;-59
2022/12/21 10:06:11;;;;;;;5.97;5.47;;;;;;;-141.84;79.88;18866.88;5050792;28;20225;-58
2022/12/21 10:09:11;;;;;;;7.33;5.73;;;;;;;-141.84;80.50;18875.00;5053244;28;20189;-58
2022/12/21 10:11:56;;;;;;;6.60;5.77;;;;;;;-141.84;80.12;18919.69;5054950;28;20205;-56
2022/12/21 10:29:10;;;;;;;5.47;4.93;;;;;;;-141.84;78.04;18950.19;5044759;28;20213;-57
2022/12/21 10:31:44;;;;;;;5.60;4.77;;;;;;;-141.84;76.75;18966.44;5054332;28;20224;-55
2022/12/21 10:34:25;;;;;;;5.37;4.87;;;;;;;-141.84;77.47;18958.31;5054317;28;20227;-56
2022/12/21 10:37:02;;;;;;;6.33;5.33;;;;;;;-141.84;76.79;18972.53;5036713;28;20237;-57
2022/12/21 10:39:37;;;;;;;6.10;4.87;;;;;;;-141.84;77.82;18972.53;5034269;28;20229;-57
2022/12/21 10:42:12;;;;;;;5.30;4.80;;;;;;;-141.84;78.41;18897.34;5034240;28;20186;-61
2022/12/21 10:44:42;;;;;;;5.77;5.20;;;;;;;-141.84;78.56;18948.16;5034523;28;20280;-56
2022/12/21 10:47:15;;;;;;;5.80;5.20;;;;;;;-141.84;78.98;18933.94;5034277;28;20226;-56
2022/12/21 10:49:49;;;;;;;6.37;5.37;;;;;;;-141.84;79.47;18915.63;5033928;28;20230;-59
2022/12/21 10:52:33;;;;;;;6.07;4.70;;;;;;;-141.84;79.09;18944.09;5034014;28;20245;-58
2022/12/21 10:55:03;;;;;;;5.40;4.83;;;;;;;-141.84;78.03;18964.41;5033711;28;20238;-57
2022/12/21 10:57:35;;;;;;;5.00;4.50;;;;;;;-141.84;78.65;18929.88;5035274;28;20825;-55
2022/12/21 11:00:24;;;;;;;5.50;4.20;;;;;;;-141.84;78.07;18964.41;5053661;28;20201;-58
2022/12/21 11:03:01;;;;;;;4.47;4.07;;;;;;;-141.84;78.87;18980.66;5054432;28;20209;-57
2022/12/21 11:05:32;;;;;;;4.30;3.90;;;;;;;-141.84;79.39;18948.16;5054133;28;20213;-58